Arusha, Tanzania

7:42 PM EAT on October 31, 2014 (GMT +0300)
Arusha | Change Station
CLOSE
Current Station
Personal Weather Station
Location: Arusha, Arusha
Elevation: 4514 ft
Nearby Weather Stations

Elev 4514 ft 3.38 °S, 36.64 °E | Updated 3 minutes ago

Mostly Cloudy
Mostly Cloudy
75.4 °F
Feels Like 78 °F
N
4.0
Wind Variable Wind from ENE
Gusts 6.0 mph

Today
High -- | Low -- °F
--% Chance of Precip.
Yesterday
High -- | Low -- °F
Precip. -- in
6:10 AM 6:23 PM
First Quarter, 57% visible
Pressure 29.93 in
Visibility 6.2 miles
Clouds Few 3600 ft
Mostly Cloudy 12000 ft
Heat Index 78 °F
Dew Point 55 °F
Humidity 50%
Rainfall 0.00 in
Snow Depth Not available.
UV 0.0 out of 12
Pollen Not available.
Air Quality Not available.
Flu Activity Not available.
METAR HTKJ 311500Z 02005KT 9999 FEW036CB BKN120 31/13 Q1012 NOSIG HTMB 311500Z 09006KT 9999 FEW020 FEW021CB BKN080 19/16 Q////

More Conditions Fewer Conditions

Pressure 29.93 in
Visibility 6.2 miles
Clouds Few 3600 ft
Mostly Cloudy 12000 ft
Heat Index 78 °F
Dew Point 55 °F
Humidity 50%
Rainfall 0.00 in
Snow Depth Not available.
UV 0.0 out of 12
Pollen Not available.
Air Quality Not available.
Flu Activity Not available.
METAR HTKJ 311500Z 02005KT 9999 FEW036CB BKN120 31/13 Q1012 NOSIG HTMB 311500Z 09006KT 9999 FEW020 FEW021CB BKN080 19/16 Q////

More Conditions Fewer Conditions

10-Day Weather Forecast

Almanac

Astronomy

Oct. 31, 2014 Rise Set
Actual Time
Civil Twilight
Nautical Twilight
Astronomical Twilight
Moon
Length of Visible Light
Length of Day
Tomorrow will be .
, % of the Moon is Illuminated

Today's Extremes

Country Highs Country Lows

Community

WunderPhotos

Upload Photos

1,766,657 photos uploaded!

WunderBlogs® & News

Nearby

Air Quality

  Air Quality AQ Index Pollutant
Not available.

Snow Depth

Station Depth Elevation

Earthquake Activity

City Distance Mag. Time & Date
Minimum magnitude displayed is 2.5.

Coastal Water Temperatures

Place Temperature

Nearby Weather Stations